<?xml version="1.0" encoding="UTF-8" standalone="no" ?>
<gpx xmlns="http://www.topografix.com/GPX/1/1" xmlns:xsi="http://www.w3.org/2001/XMLSchema-instance" xsi:schemaLocation="http://www.topografix.com/GPX/1/1 http://www.topografix.com/GPX/1/1/gpx.xsd" version="1.1" creator="VisuGPX - https://www.visugpx.com">
  <metadata>
    <name>2024 05 22 Parcours Total 2024</name>
  </metadata>
  <trk>
    <name><![CDATA[CAP13]]></name>
    <extensions>
      <line xmlns="http://www.topografix.com/GPX/gpx_style/0/2">
        <color>ff0000</color>
        <width>7</width>
      </line>
    </extensions>
    <trkseg>
      <trkpt lat="48.19762" lon="3.28405">
        <ele>74</ele>
        <time>2024-01-21T10:22:13.000Z</time>
        <extensions>
          <visugpx:TrkExtension xmlns:visugpx="https://www.visugpx.com/editgpx/">
            <visugpx:node>1</visugpx:node>
            </visugpx:TrkExtension>
        </extensions>
      </trkpt>
      <trkpt lat="48.19764" lon="3.28391">
        <ele>74</ele>
        <time>2024-01-21T10:22:18.000Z</time>
      </trkpt>
      <trkpt lat="48.19766" lon="3.28366">
        <ele>74</ele>
        <time>2024-01-21T10:22:20.000Z</time>
      </trkpt>
      <trkpt lat="48.1977" lon="3.28351">
        <ele>74</ele>
        <time>2024-01-21T10:22:22.000Z</time>
      </trkpt>
      <trkpt lat="48.19771" lon="3.28346">
        <ele>74</ele>
        <time>2024-01-21T10:22:23.000Z</time>
      </trkpt>
      <trkpt lat="48.19772" lon="3.2834">
        <ele>74</ele>
        <time>2024-01-21T10:22:24.000Z</time>
      </trkpt>
      <trkpt lat="48.19776" lon="3.28321">
        <ele>74</ele>
        <time>2024-01-21T10:22:28.000Z</time>
      </trkpt>
      <trkpt lat="48.19776" lon="3.28318">
        <ele>74</ele>
        <time>2024-01-21T10:22:29.000Z</time>
      </trkpt>
      <trkpt lat="48.19778" lon="3.2831">
        <ele>74</ele>
        <time>2024-01-21T10:22:31.000Z</time>
      </trkpt>
      <trkpt lat="48.19778" lon="3.28306">
        <ele>74</ele>
        <time>2024-01-21T10:22:32.000Z</time>
      </trkpt>
      <trkpt lat="48.19778" lon="3.28303">
        <ele>74</ele>
        <time>2024-01-21T10:22:33.000Z</time>
      </trkpt>
      <trkpt lat="48.19778" lon="3.28268">
        <ele>74</ele>
        <time>2024-01-21T10:22:39.000Z</time>
      </trkpt>
      <trkpt lat="48.19778" lon="3.28263">
        <ele>74</ele>
        <time>2024-01-21T10:22:40.000Z</time>
      </trkpt>
      <trkpt lat="48.1978" lon="3.28238">
        <ele>74</ele>
        <time>2024-01-21T10:22:46.000Z</time>
      </trkpt>
      <trkpt lat="48.19778" lon="3.28232">
        <ele>74</ele>
        <time>2024-01-21T10:22:48.000Z</time>
      </trkpt>
      <trkpt lat="48.19778" lon="3.28228">
        <ele>74</ele>
        <time>2024-01-21T10:22:49.000Z</time>
      </trkpt>
      <trkpt lat="48.19777" lon="3.28225">
        <ele>74</ele>
        <time>2024-01-21T10:22:50.000Z</time>
      </trkpt>
      <trkpt lat="48.19776" lon="3.28221">
        <ele>74</ele>
        <time>2024-01-21T10:22:51.000Z</time>
      </trkpt>
      <trkpt lat="48.19775" lon="3.28218">
        <ele>74</ele>
        <time>2024-01-21T10:22:52.000Z</time>
      </trkpt>
      <trkpt lat="48.19771" lon="3.28208">
        <ele>74</ele>
        <time>2024-01-21T10:22:55.000Z</time>
      </trkpt>
      <trkpt lat="48.1977" lon="3.28205">
        <ele>74</ele>
        <time>2024-01-21T10:22:56.000Z</time>
      </trkpt>
      <trkpt lat="48.19769" lon="3.28202">
        <ele>74</ele>
        <time>2024-01-21T10:22:57.000Z</time>
      </trkpt>
      <trkpt lat="48.19762" lon="3.28178">
        <ele>73.4</ele>
        <time>2024-01-21T10:23:02.000Z</time>
      </trkpt>
      <trkpt lat="48.19759" lon="3.28169">
        <ele>73.1</ele>
        <time>2024-01-21T10:23:04.000Z</time>
      </trkpt>
      <trkpt lat="48.19758" lon="3.28166">
        <ele>73</ele>
        <time>2024-01-21T10:23:05.000Z</time>
      </trkpt>
      <trkpt lat="48.19752" lon="3.28146">
        <ele>73</ele>
        <time>2024-01-21T10:23:10.000Z</time>
      </trkpt>
      <trkpt lat="48.19719" lon="3.28153">
        <ele>73</ele>
        <time>2024-01-21T10:23:20.000Z</time>
      </trkpt>
      <trkpt lat="48.19719" lon="3.28139">
        <ele>73</ele>
        <time>2024-01-21T10:23:22.000Z</time>
      </trkpt>
      <trkpt lat="48.1972" lon="3.28131">
        <ele>73</ele>
        <time>2024-01-21T10:23:23.000Z</time>
      </trkpt>
      <trkpt lat="48.19716" lon="3.28055">
        <ele>72.8</ele>
        <time>2024-01-21T10:23:38.000Z</time>
      </trkpt>
      <trkpt lat="48.19715" lon="3.28051">
        <ele>72.6</ele>
        <time>2024-01-21T10:23:39.000Z</time>
      </trkpt>
      <trkpt lat="48.19713" lon="3.28037">
        <ele>72.2</ele>
        <time>2024-01-21T10:23:42.000Z</time>
      </trkpt>
      <trkpt lat="48.19713" lon="3.28032">
        <ele>72.1</ele>
        <time>2024-01-21T10:23:43.000Z</time>
      </trkpt>
      <trkpt lat="48.19713" lon="3.28027">
        <ele>72</ele>
        <time>2024-01-21T10:23:44.000Z</time>
      </trkpt>
      <trkpt lat="48.19712" lon="3.28022">
        <ele>72</ele>
        <time>2024-01-21T10:23:45.000Z</time>
      </trkpt>
      <trkpt lat="48.19711" lon="3.28005">
        <ele>72</ele>
        <time>2024-01-21T10:23:48.000Z</time>
      </trkpt>
      <trkpt lat="48.19711" lon="3.27999">
        <ele>72</ele>
        <time>2024-01-21T10:23:49.000Z</time>
      </trkpt>
      <trkpt lat="48.19711" lon="3.27992">
        <ele>71.9</ele>
        <time>2024-01-21T10:23:50.000Z</time>
      </trkpt>
      <trkpt lat="48.1971" lon="3.27969">
        <ele>71.5</ele>
        <time>2024-01-21T10:23:53.000Z</time>
      </trkpt>
      <trkpt lat="48.19712" lon="3.27938">
        <ele>70.9</ele>
        <time>2024-01-21T10:23:57.000Z</time>
      </trkpt>
      <trkpt lat="48.19713" lon="3.27922">
        <ele>70.5</ele>
        <time>2024-01-21T10:23:59.000Z</time>
      </trkpt>
      <trkpt lat="48.19714" lon="3.27914">
        <ele>70.3</ele>
        <time>2024-01-21T10:24:00.000Z</time>
      </trkpt>
      <trkpt lat="48.19714" lon="3.27904">
        <ele>70.2</ele>
        <time>2024-01-21T10:24:01.000Z</time>
      </trkpt>
      <trkpt lat="48.19716" lon="3.2789">
        <ele>70</ele>
        <time>2024-01-21T10:24:03.000Z</time>
      </trkpt>
      <trkpt lat="48.19715" lon="3.27862">
        <ele>70</ele>
        <time>2024-01-21T10:24:07.000Z</time>
      </trkpt>
      <trkpt lat="48.19716" lon="3.27857">
        <ele>69.9</ele>
        <time>2024-01-21T10:24:08.000Z</time>
      </trkpt>
      <trkpt lat="48.19716" lon="3.2785">
        <ele>69.6</ele>
        <time>2024-01-21T10:24:09.000Z</time>
      </trkpt>
      <trkpt lat="48.19716" lon="3.27843">
        <ele>69.3</ele>
        <time>2024-01-21T10:24:10.000Z</time>
      </trkpt>
      <trkpt lat="48.19716" lon="3.27836">
        <ele>69.1</ele>
        <time>2024-01-21T10:24:11.000Z</time>
      </trkpt>
      <trkpt lat="48.19715" lon="3.27814">
        <ele>68.5</ele>
        <time>2024-01-21T10:24:14.000Z</time>
      </trkpt>
      <trkpt lat="48.19714" lon="3.27794">
        <ele>68.3</ele>
        <time>2024-01-21T10:24:17.000Z</time>
      </trkpt>
      <trkpt lat="48.19715" lon="3.27788">
        <ele>68.3</ele>
        <time>2024-01-21T10:24:18.000Z</time>
      </trkpt>
      <trkpt lat="48.19715" lon="3.27783">
        <ele>68.3</ele>
        <time>2024-01-21T10:24:19.000Z</time>
      </trkpt>
      <trkpt lat="48.19716" lon="3.27777">
        <ele>68.2</ele>
        <time>2024-01-21T10:24:20.000Z</time>
      </trkpt>
      <trkpt lat="48.19716" lon="3.27771">
        <ele>68.2</ele>
        <time>2024-01-21T10:24:21.000Z</time>
      </trkpt>
      <trkpt lat="48.19717" lon="3.27765">
        <ele>68.2</ele>
        <time>2024-01-21T10:24:22.000Z</time>
      </trkpt>
      <trkpt lat="48.19717" lon="3.27758">
        <ele>68.2</ele>
        <time>2024-01-21T10:24:23.000Z</time>
      </trkpt>
      <trkpt lat="48.19718" lon="3.27754">
        <ele>68.2</ele>
        <time>2024-01-21T10:24:24.000Z</time>
      </trkpt>
      <trkpt lat="48.1972" lon="3.27736">
        <ele>68</ele>
        <time>2024-01-21T10:24:27.000Z</time>
      </trkpt>
      <trkpt lat="48.19722" lon="3.27726">
        <ele>68</ele>
        <time>2024-01-21T10:24:29.000Z</time>
      </trkpt>
      <trkpt lat="48.19723" lon="3.27721">
        <ele>68</ele>
        <time>2024-01-21T10:24:30.000Z</time>
      </trkpt>
      <trkpt lat="48.19724" lon="3.27717">
        <ele>68.2</ele>
        <time>2024-01-21T10:24:31.000Z</time>
      </trkpt>
      <trkpt lat="48.19725" lon="3.27714">
        <ele>68.3</ele>
        <time>2024-01-21T10:24:32.000Z</time>
      </trkpt>
      <trkpt lat="48.19726" lon="3.27711">
        <ele>68.4</ele>
        <time>2024-01-21T10:24:33.000Z</time>
      </trkpt>
      <trkpt lat="48.19727" lon="3.27708">
        <ele>68.5</ele>
        <time>2024-01-21T10:24:34.000Z</time>
      </trkpt>
      <trkpt lat="48.19727" lon="3.27705">
        <ele>68.6</ele>
        <time>2024-01-21T10:24:35.000Z</time>
      </trkpt>
      <trkpt lat="48.19728" lon="3.27702">
        <ele>68.7</ele>
        <time>2024-01-21T10:24:36.000Z</time>
      </trkpt>
      <trkpt lat="48.19728" lon="3.277">
        <ele>68.8</ele>
        <time>2024-01-21T10:24:37.000Z</time>
      </trkpt>
      <trkpt lat="48.19728" lon="3.27697">
        <ele>68.9</ele>
        <time>2024-01-21T10:24:38.000Z</time>
      </trkpt>
      <trkpt lat="48.19729" lon="3.27694">
        <ele>69</ele>
        <time>2024-01-21T10:24:39.000Z</time>
      </trkpt>
      <trkpt lat="48.19729" lon="3.27691">
        <ele>69</ele>
        <time>2024-01-21T10:24:40.000Z</time>
      </trkpt>
      <trkpt lat="48.19732" lon="3.27686">
        <ele>68.9</ele>
        <time>2024-01-21T10:24:42.000Z</time>
      </trkpt>
      <trkpt lat="48.19733" lon="3.27683">
        <ele>68.8</ele>
        <time>2024-01-21T10:24:43.000Z</time>
      </trkpt>
      <trkpt lat="48.19734" lon="3.2768">
        <ele>68.8</ele>
        <time>2024-01-21T10:24:44.000Z</time>
      </trkpt>
      <trkpt lat="48.19735" lon="3.27678">
        <ele>68.7</ele>
        <time>2024-01-21T10:24:45.000Z</time>
      </trkpt>
      <trkpt lat="48.19735" lon="3.27675">
        <ele>68.7</ele>
        <time>2024-01-21T10:24:46.000Z</time>
      </trkpt>
      <trkpt lat="48.19736" lon="3.27672">
        <ele>68.6</ele>
        <time>2024-01-21T10:24:47.000Z</time>
      </trkpt>
      <trkpt lat="48.19735" lon="3.27669">
        <ele>68.6</ele>
        <time>2024-01-21T10:24:48.000Z</time>
      </trkpt>
      <trkpt lat="48.19738" lon="3.27653">
        <ele>66</ele>
        <time>2024-01-21T10:24:53.000Z</time>
      </trkpt>
      <trkpt lat="48.19739" lon="3.27643">
        <ele>64.3</ele>
        <time>2024-01-21T10:24:56.000Z</time>
      </trkpt>
      <trkpt lat="48.19743" lon="3.27618">
        <ele>63.9</ele>
        <time>2024-01-21T10:25:03.000Z</time>
      </trkpt>
      <trkpt lat="48.19746" lon="3.27598">
        <ele>64</ele>
        <time>2024-01-21T10:25:08.000Z</time>
      </trkpt>
      <trkpt lat="48.19752" lon="3.27567">
        <ele>66.9</ele>
        <time>2024-01-21T10:25:16.000Z</time>
      </trkpt>
      <trkpt lat="48.19753" lon="3.27564">
        <ele>67.4</ele>
        <time>2024-01-21T10:25:17.000Z</time>
      </trkpt>
      <trkpt lat="48.19757" lon="3.27556">
        <ele>68.4</ele>
        <time>2024-01-21T10:25:20.000Z</time>
      </trkpt>
      <trkpt lat="48.19758" lon="3.27554">
        <ele>68.4</ele>
        <time>2024-01-21T10:25:21.000Z</time>
      </trkpt>
      <trkpt lat="48.19759" lon="3.27552">
        <ele>68.4</ele>
        <time>2024-01-21T10:25:22.000Z</time>
      </trkpt>
      <trkpt lat="48.19761" lon="3.27551">
        <ele>68.3</ele>
        <time>2024-01-21T10:25:23.000Z</time>
      </trkpt>
      <trkpt lat="48.19761" lon="3.27551">
        <ele>68.3</ele>
        <time>2024-01-21T10:25:24.000Z</time>
      </trkpt>
      <trkpt lat="48.19761" lon="3.27551">
        <ele>68.3</ele>
        <time>2024-01-21T10:25:25.000Z</time>
      </trkpt>
      <trkpt lat="48.19762" lon="3.27551">
        <ele>68.2</ele>
        <time>2024-01-21T10:25:28.000Z</time>
      </trkpt>
      <trkpt lat="48.19762" lon="3.27551">
        <ele>68.2</ele>
        <time>2024-01-21T10:25:29.000Z</time>
      </trkpt>
      <trkpt lat="48.19762" lon="3.27551">
        <ele>68.2</ele>
        <time>2024-01-21T10:25:30.000Z</time>
      </trkpt>
      <trkpt lat="48.19762" lon="3.27551">
        <ele>68.2</ele>
        <time>2024-01-21T10:25:32.000Z</time>
      </trkpt>
      <trkpt lat="48.19763" lon="3.27552">
        <ele>68.1</ele>
        <time>2024-01-21T10:25:33.000Z</time>
      </trkpt>
      <trkpt lat="48.19763" lon="3.27552">
        <ele>68.1</ele>
        <time>2024-01-21T10:25:34.000Z</time>
      </trkpt>
      <trkpt lat="48.19763" lon="3.27553">
        <ele>68.1</ele>
        <time>2024-01-21T10:25:35.000Z</time>
      </trkpt>
      <trkpt lat="48.19764" lon="3.27554">
        <ele>68</ele>
        <time>2024-01-21T10:25:37.000Z</time>
      </trkpt>
      <trkpt lat="48.19763" lon="3.27556">
        <ele>68</ele>
        <time>2024-01-21T10:25:38.000Z</time>
      </trkpt>
      <trkpt lat="48.19763" lon="3.27558">
        <ele>67.7</ele>
        <time>2024-01-21T10:25:39.000Z</time>
      </trkpt>
      <trkpt lat="48.19762" lon="3.27564">
        <ele>67</ele>
        <time>2024-01-21T10:25:41.000Z</time>
      </trkpt>
      <trkpt lat="48.19761" lon="3.27567">
        <ele>66.6</ele>
        <time>2024-01-21T10:25:42.000Z</time>
      </trkpt>
      <trkpt lat="48.19761" lon="3.27569">
        <ele>66.4</ele>
        <time>2024-01-21T10:25:43.000Z</time>
      </trkpt>
      <trkpt lat="48.19761" lon="3.27571">
        <ele>66.1</ele>
        <time>2024-01-21T10:25:44.000Z</time>
      </trkpt>
      <trkpt lat="48.1976" lon="3.27571">
        <ele>66.1</ele>
        <time>2024-01-21T10:25:45.000Z</time>
      </trkpt>
      <trkpt lat="48.1976" lon="3.27571">
        <ele>66.1</ele>
        <time>2024-01-21T10:25:46.000Z</time>
      </trkpt>
      <trkpt lat="48.19761" lon="3.27572">
        <ele>66</ele>
        <time>2024-01-21T10:25:49.000Z</time>
      </trkpt>
      <trkpt lat="48.19761" lon="3.27575">
        <ele>65.5</ele>
        <time>2024-01-21T10:25:51.000Z</time>
      </trkpt>
      <trkpt lat="48.19762" lon="3.27576">
        <ele>65.4</ele>
        <time>2024-01-21T10:25:52.000Z</time>
      </trkpt>
      <trkpt lat="48.19762" lon="3.27578">
        <ele>65.1</ele>
        <time>2024-01-21T10:25:54.000Z</time>
      </trkpt>
      <trkpt lat="48.19762" lon="3.27578">
        <ele>65.1</ele>
        <time>2024-01-21T10:25:55.000Z</time>
      </trkpt>
      <trkpt lat="48.19763" lon="3.27579">
        <ele>65</ele>
        <time>2024-01-21T10:25:56.000Z</time>
      </trkpt>
      <trkpt lat="48.19765" lon="3.2758">
        <ele>64.9</ele>
        <time>2024-01-21T10:25:57.000Z</time>
      </trkpt>
      <trkpt lat="48.19766" lon="3.27581">
        <ele>64.9</ele>
        <time>2024-01-21T10:25:58.000Z</time>
      </trkpt>
      <trkpt lat="48.19769" lon="3.27582">
        <ele>64.8</ele>
        <time>2024-01-21T10:25:59.000Z</time>
      </trkpt>
      <trkpt lat="48.19774" lon="3.27582">
        <ele>65</ele>
        <time>2024-01-21T10:26:01.000Z</time>
      </trkpt>
      <trkpt lat="48.19776" lon="3.27582">
        <ele>65</ele>
        <time>2024-01-21T10:26:02.000Z</time>
      </trkpt>
      <trkpt lat="48.19781" lon="3.27582">
        <ele>65</ele>
        <time>2024-01-21T10:26:04.000Z</time>
      </trkpt>
      <trkpt lat="48.19783" lon="3.27581">
        <ele>65</ele>
        <time>2024-01-21T10:26:05.000Z</time>
      </trkpt>
      <trkpt lat="48.19785" lon="3.2758">
        <ele>65</ele>
        <time>2024-01-21T10:26:06.000Z</time>
      </trkpt>
      <trkpt lat="48.19787" lon="3.27579">
        <ele>65</ele>
        <time>2024-01-21T10:26:07.000Z</time>
      </trkpt>
      <trkpt lat="48.19789" lon="3.27578">
        <ele>65</ele>
        <time>2024-01-21T10:26:08.000Z</time>
      </trkpt>
      <trkpt lat="48.1979" lon="3.27577">
        <ele>65</ele>
        <time>2024-01-21T10:26:09.000Z</time>
      </trkpt>
      <trkpt lat="48.1979" lon="3.27575">
        <ele>65.2</ele>
        <time>2024-01-21T10:26:10.000Z</time>
      </trkpt>
      <trkpt lat="48.19791" lon="3.27573">
        <ele>65.3</ele>
        <time>2024-01-21T10:26:11.000Z</time>
      </trkpt>
      <trkpt lat="48.19793" lon="3.27572">
        <ele>65.3</ele>
        <time>2024-01-21T10:26:12.000Z</time>
      </trkpt>
      <trkpt lat="48.19793" lon="3.27574">
        <ele>65.1</ele>
        <time>2024-01-21T10:26:20.000Z</time>
      </trkpt>
      <trkpt lat="48.19793" lon="3.27575">
        <ele>65.1</ele>
        <time>2024-01-21T10:26:22.000Z</time>
      </trkpt>
      <trkpt lat="48.19793" lon="3.27575">
        <ele>65.1</ele>
        <time>2024-01-21T10:26:23.000Z</time>
      </trkpt>
      <trkpt lat="48.19793" lon="3.27575">
        <ele>65.1</ele>
        <time>2024-01-21T10:26:24.000Z</time>
      </trkpt>
      <trkpt lat="48.19795" lon="3.27577">
        <ele>64.8</ele>
        <time>2024-01-21T10:26:26.000Z</time>
      </trkpt>
      <trkpt lat="48.19796" lon="3.27578">
        <ele>64.7</ele>
        <time>2024-01-21T10:26:27.000Z</time>
      </trkpt>
      <trkpt lat="48.19798" lon="3.27579">
        <ele>64.6</ele>
        <time>2024-01-21T10:26:28.000Z</time>
      </trkpt>
      <trkpt lat="48.19803" lon="3.27579">
        <ele>64.4</ele>
        <time>2024-01-21T10:26:30.000Z</time>
      </trkpt>
      <trkpt lat="48.19805" lon="3.27579">
        <ele>64.3</ele>
        <time>2024-01-21T10:26:31.000Z</time>
      </trkpt>
      <trkpt lat="48.1981" lon="3.27579">
        <ele>64.3</ele>
        <time>2024-01-21T10:26:33.000Z</time>
      </trkpt>
      <trkpt lat="48.19813" lon="3.27579">
        <ele>64.3</ele>
        <time>2024-01-21T10:26:34.000Z</time>
      </trkpt>
      <trkpt lat="48.19823" lon="3.27579">
        <ele>64.3</ele>
        <time>2024-01-21T10:26:38.000Z</time>
      </trkpt>
      <trkpt lat="48.19828" lon="3.27579">
        <ele>64.3</ele>
        <time>2024-01-21T10:26:40.000Z</time>
      </trkpt>
      <trkpt lat="48.19846" lon="3.27578">
        <ele>64.3</ele>
        <time>2024-01-21T10:26:47.000Z</time>
      </trkpt>
      <trkpt lat="48.1985" lon="3.27577">
        <ele>64.3</ele>
        <time>2024-01-21T10:26:49.000Z</time>
      </trkpt>
      <trkpt lat="48.19853" lon="3.27577">
        <ele>64.3</ele>
        <time>2024-01-21T10:26:50.000Z</time>
      </trkpt>
      <trkpt lat="48.19854" lon="3.27576">
        <ele>64.3</ele>
        <time>2024-01-21T10:26:51.000Z</time>
      </trkpt>
      <trkpt lat="48.19859" lon="3.27574">
        <ele>64.4</ele>
        <time>2024-01-21T10:26:53.000Z</time>
      </trkpt>
      <trkpt lat="48.19861" lon="3.27573">
        <ele>64.4</ele>
        <time>2024-01-21T10:26:54.000Z</time>
      </trkpt>
      <trkpt lat="48.19862" lon="3.27572">
        <ele>64.4</ele>
        <time>2024-01-21T10:26:55.000Z</time>
      </trkpt>
      <trkpt lat="48.19864" lon="3.27571">
        <ele>64.4</ele>
        <time>2024-01-21T10:26:56.000Z</time>
      </trkpt>
      <trkpt lat="48.19866" lon="3.27569">
        <ele>64.5</ele>
        <time>2024-01-21T10:26:57.000Z</time>
      </trkpt>
      <trkpt lat="48.19868" lon="3.27568">
        <ele>64.6</ele>
        <time>2024-01-21T10:26:58.000Z</time>
      </trkpt>
      <trkpt lat="48.19869" lon="3.27567">
        <ele>64.6</ele>
        <time>2024-01-21T10:26:59.000Z</time>
      </trkpt>
      <trkpt lat="48.19871" lon="3.27566">
        <ele>64.6</ele>
        <time>2024-01-21T10:27:00.000Z</time>
      </trkpt>
      <trkpt lat="48.19872" lon="3.27565">
        <ele>64.7</ele>
        <time>2024-01-21T10:27:01.000Z</time>
      </trkpt>
      <trkpt lat="48.19874" lon="3.27564">
        <ele>64.7</ele>
        <time>2024-01-21T10:27:02.000Z</time>
      </trkpt>
      <trkpt lat="48.19876" lon="3.27563">
        <ele>64.7</ele>
        <time>2024-01-21T10:27:03.000Z</time>
      </trkpt>
      <trkpt lat="48.19878" lon="3.27562">
        <ele>64.8</ele>
        <time>2024-01-21T10:27:04.000Z</time>
      </trkpt>
      <trkpt lat="48.1988" lon="3.27561">
        <ele>64.8</ele>
        <time>2024-01-21T10:27:05.000Z</time>
      </trkpt>
      <trkpt lat="48.19882" lon="3.2756">
        <ele>64.8</ele>
        <time>2024-01-21T10:27:06.000Z</time>
      </trkpt>
      <trkpt lat="48.19883" lon="3.27559">
        <ele>64.9</ele>
        <time>2024-01-21T10:27:07.000Z</time>
      </trkpt>
      <trkpt lat="48.19883" lon="3.27559">
        <ele>64.9</ele>
        <time>2024-01-21T10:27:08.000Z</time>
      </trkpt>
      <trkpt lat="48.19883" lon="3.27559">
        <ele>64.9</ele>
        <time>2024-01-21T10:27:09.000Z</time>
      </trkpt>
      <trkpt lat="48.19884" lon="3.27559">
        <ele>64.9</ele>
        <time>2024-01-21T10:27:11.000Z</time>
      </trkpt>
      <trkpt lat="48.19885" lon="3.27559">
        <ele>64.9</ele>
        <time>2024-01-21T10:27:12.000Z</time>
      </trkpt>
      <trkpt lat="48.19888" lon="3.2756">
        <ele>64.8</ele>
        <time>2024-01-21T10:27:14.000Z</time>
      </trkpt>
      <trkpt lat="48.19901" lon="3.27556">
        <ele>65</ele>
        <time>2024-01-21T10:27:19.000Z</time>
      </trkpt>
      <trkpt lat="48.19905" lon="3.27556">
        <ele>65</ele>
        <time>2024-01-21T10:27:20.000Z</time>
      </trkpt>
      <trkpt lat="48.19916" lon="3.27551">
        <ele>65</ele>
        <time>2024-01-21T10:27:25.000Z</time>
      </trkpt>
      <trkpt lat="48.19918" lon="3.2755">
        <ele>65</ele>
        <time>2024-01-21T10:27:26.000Z</time>
      </trkpt>
      <trkpt lat="48.19919" lon="3.2755">
        <ele>64.9</ele>
        <time>2024-01-21T10:27:27.000Z</time>
      </trkpt>
      <trkpt lat="48.1992" lon="3.27549">
        <ele>64.9</ele>
        <time>2024-01-21T10:27:28.000Z</time>
      </trkpt>
      <trkpt lat="48.19922" lon="3.27549">
        <ele>64.9</ele>
        <time>2024-01-21T10:27:29.000Z</time>
      </trkpt>
      <trkpt lat="48.19946" lon="3.2754">
        <ele>64.6</ele>
      </trkpt>
      <trkpt lat="48.19944" lon="3.27528">
        <ele>65</ele>
        <time>2024-01-21T10:27:45.000Z</time>
      </trkpt>
      <trkpt lat="48.19938" lon="3.275">
        <ele>66</ele>
        <time>2024-01-21T10:27:54.000Z</time>
      </trkpt>
      <trkpt lat="48.19937" lon="3.27496">
        <ele>66</ele>
        <time>2024-01-21T10:27:56.000Z</time>
      </trkpt>
      <trkpt lat="48.19936" lon="3.27485">
        <ele>66</ele>
      </trkpt>
      <trkpt lat="48.19947" lon="3.27483">
        <ele>66</ele>
        <time>2024-01-21T10:28:01.000Z</time>
      </trkpt>
      <trkpt lat="48.19958" lon="3.2748">
        <ele>66</ele>
        <time>2024-01-21T10:28:05.000Z</time>
      </trkpt>
      <trkpt lat="48.19963" lon="3.2748">
        <ele>66</ele>
        <time>2024-01-21T10:28:07.000Z</time>
      </trkpt>
      <trkpt lat="48.19967" lon="3.27478">
        <ele>66</ele>
        <time>2024-01-21T10:28:11.000Z</time>
      </trkpt>
      <trkpt lat="48.19969" lon="3.27476">
        <ele>66</ele>
      </trkpt>
      <trkpt lat="48.19969" lon="3.27472">
        <ele>66</ele>
        <time>2024-01-21T10:28:15.000Z</time>
      </trkpt>
      <trkpt lat="48.19965" lon="3.27401">
        <ele>64.8</ele>
        <time>2024-01-21T10:28:26.000Z</time>
      </trkpt>
      <trkpt lat="48.19962" lon="3.27403">
        <ele>64.8</ele>
        <time>2024-01-21T10:28:33.000Z</time>
      </trkpt>
      <trkpt lat="48.19953" lon="3.27404">
        <ele>64.7</ele>
      </trkpt>
      <trkpt lat="48.19945" lon="3.27407">
        <ele>64.7</ele>
        <time>2024-01-21T10:28:43.000Z</time>
      </trkpt>
      <trkpt lat="48.19936" lon="3.27407">
        <ele>64.7</ele>
        <time>2024-01-21T10:28:47.000Z</time>
      </trkpt>
      <trkpt lat="48.19925" lon="3.27408">
        <ele>64.7</ele>
        <time>2024-01-21T10:28:51.000Z</time>
      </trkpt>
      <trkpt lat="48.19922" lon="3.27409">
        <ele>64.7</ele>
        <time>2024-01-21T10:28:52.000Z</time>
      </trkpt>
      <trkpt lat="48.19919" lon="3.27409">
        <ele>64.7</ele>
        <time>2024-01-21T10:28:53.000Z</time>
      </trkpt>
      <trkpt lat="48.19917" lon="3.2741">
        <ele>64.8</ele>
        <time>2024-01-21T10:28:54.000Z</time>
      </trkpt>
      <trkpt lat="48.19915" lon="3.27411">
        <ele>64.8</ele>
        <time>2024-01-21T10:28:55.000Z</time>
      </trkpt>
      <trkpt lat="48.19913" lon="3.27412">
        <ele>64.8</ele>
        <time>2024-01-21T10:28:56.000Z</time>
      </trkpt>
      <trkpt lat="48.1991" lon="3.27413">
        <ele>64.9</ele>
        <time>2024-01-21T10:28:57.000Z</time>
      </trkpt>
      <trkpt lat="48.19908" lon="3.27414">
        <ele>64.9</ele>
        <time>2024-01-21T10:28:58.000Z</time>
      </trkpt>
      <trkpt lat="48.19898" lon="3.27417">
        <ele>65</ele>
        <time>2024-01-21T10:29:02.000Z</time>
      </trkpt>
      <trkpt lat="48.19896" lon="3.27418">
        <ele>65</ele>
        <time>2024-01-21T10:29:03.000Z</time>
      </trkpt>
      <trkpt lat="48.19894" lon="3.27418">
        <ele>65</ele>
        <time>2024-01-21T10:29:04.000Z</time>
      </trkpt>
      <trkpt lat="48.19892" lon="3.27418">
        <ele>65</ele>
        <time>2024-01-21T10:29:05.000Z</time>
      </trkpt>
      <trkpt lat="48.19891" lon="3.27418">
        <ele>65</ele>
        <time>2024-01-21T10:29:06.000Z</time>
      </trkpt>
    </trkseg>
  </trk>
</gpx>